createdAt,value
2022-12-31T00:00:08.242Z,10.52
2022-12-31T00:02:35.382Z,10.56
2022-12-31T00:05:02.571Z,10.56
2022-12-31T00:07:29.365Z,10.57
2022-12-31T00:09:56.079Z,10.58
2022-12-31T00:12:22.861Z,10.58
2022-12-31T00:14:49.555Z,10.58
2022-12-31T00:17:16.217Z,10.57
2022-12-31T00:19:43.771Z,10.57
2022-12-31T00:22:10.700Z,10.56
2022-12-31T00:24:37.425Z,10.57
2022-12-31T00:27:04.146Z,10.57
2022-12-31T00:29:30.830Z,10.55
2022-12-31T00:31:57.490Z,10.55
2022-12-31T00:34:24.302Z,10.53
2022-12-31T00:36:50.954Z,10.53
2022-12-31T00:39:17.622Z,10.53
2022-12-31T00:41:44.553Z,10.50
2022-12-31T00:44:12.821Z,10.49
2022-12-31T00:49:05.660Z,10.46
2022-12-31T00:51:32.348Z,10.44
2022-12-31T00:53:59.408Z,10.44
2022-12-31T00:56:28.860Z,10.43
2022-12-31T00:58:56.061Z,10.44
2022-12-31T01:01:26.294Z,10.42
2022-12-31T01:03:55.785Z,10.44
2022-12-31T01:06:23.223Z,10.45
2022-12-31T01:08:50.799Z,10.45
2022-12-31T01:11:24.402Z,10.46
2022-12-31T01:14:03.921Z,10.51
2022-12-31T01:16:45.909Z,10.53
2022-12-31T01:19:19.490Z,10.62
2022-12-31T01:21:47.473Z,10.65
2022-12-31T01:24:14.383Z,10.71
2022-12-31T01:26:41.760Z,10.78
2022-12-31T01:29:09.987Z,10.81
2022-12-31T01:31:38.299Z,10.87
2022-12-31T01:34:06.221Z,10.85
2022-12-31T01:36:35.675Z,10.91
2022-12-31T01:39:05.475Z,10.90
2022-12-31T01:41:51.660Z,10.98
2022-12-31T01:44:27.196Z,10.94
2022-12-31T01:46:57.195Z,10.89
2022-12-31T01:49:32.851Z,10.85
2022-12-31T01:52:22.744Z,10.78
2022-12-31T01:55:09.554Z,10.76
2022-12-31T01:57:37.940Z,10.67
2022-12-31T02:00:05.961Z,10.70
2022-12-31T02:02:33.093Z,10.69
2022-12-31T02:05:03.951Z,10.64
2022-12-31T02:07:31.263Z,10.60
2022-12-31T02:09:58.060Z,10.56
2022-12-31T02:12:24.701Z,10.51
2022-12-31T02:14:54.468Z,10.49
2022-12-31T02:17:42.876Z,10.50
2022-12-31T02:20:27.727Z,10.52
2022-12-31T02:23:11.032Z,10.50
2022-12-31T02:25:57.558Z,10.55
2022-12-31T02:28:45.377Z,10.57
2022-12-31T02:31:17.354Z,10.59
2022-12-31T02:33:51.528Z,10.58
2022-12-31T02:36:22.733Z,10.57
2022-12-31T02:38:50.270Z,10.58
2022-12-31T02:41:38.927Z,10.58
2022-12-31T02:44:24.466Z,10.58
2022-12-31T02:47:14.117Z,10.58
2022-12-31T02:50:07.115Z,10.65
2022-12-31T02:52:42.800Z,10.65
2022-12-31T02:55:18.949Z,10.67
2022-12-31T02:57:57.680Z,10.69
2022-12-31T03:00:43.426Z,10.68
2022-12-31T03:03:11.696Z,10.68
2022-12-31T03:05:42.330Z,10.67
2022-12-31T03:08:09.572Z,10.65
2022-12-31T03:10:36.873Z,10.63
2022-12-31T03:13:04.015Z,10.66
2022-12-31T03:15:33.459Z,10.66
2022-12-31T03:18:12.223Z,10.62
2022-12-31T03:21:00.948Z,10.60
2022-12-31T03:23:34.293Z,10.59
2022-12-31T03:26:02.232Z,10.61
2022-12-31T03:28:30.418Z,10.62
2022-12-31T03:31:00.257Z,10.63
2022-12-31T03:33:31.190Z,10.62
2022-12-31T03:35:57.893Z,10.58
2022-12-31T03:38:24.652Z,10.57
2022-12-31T03:40:52.948Z,10.52
2022-12-31T03:43:20.461Z,10.51
2022-12-31T03:45:51.891Z,10.45
2022-12-31T03:48:19.197Z,10.49
2022-12-31T03:50:45.990Z,10.47
2022-12-31T03:53:12.752Z,10.45
2022-12-31T03:55:39.520Z,10.41
2022-12-31T03:58:06.532Z,10.36
2022-12-31T04:00:33.275Z,10.30
2022-12-31T04:03:00.097Z,10.26
2022-12-31T04:05:27.006Z,10.24
2022-12-31T04:07:55.685Z,10.21
2022-12-31T04:10:22.466Z,10.19
2022-12-31T04:12:49.656Z,10.19
2022-12-31T04:15:19.575Z,10.15
2022-12-31T04:17:46.785Z,10.17
2022-12-31T04:20:14.106Z,10.14
2022-12-31T04:22:41.618Z,10.13
2022-12-31T04:25:11.464Z,10.17
2022-12-31T04:27:43.891Z,10.19
2022-12-31T04:30:12.837Z,10.16
2022-12-31T04:32:39.877Z,10.18
2022-12-31T04:35:07.350Z,10.14
2022-12-31T04:37:34.067Z,10.16
2022-12-31T04:40:05.885Z,10.17
2022-12-31T04:42:33.465Z,10.18
2022-12-31T04:45:00.508Z,10.15
2022-12-31T04:47:27.630Z,10.12
2022-12-31T04:49:54.667Z,10.03
2022-12-31T04:52:23.003Z,9.99
2022-12-31T04:54:50.253Z,9.97
2022-12-31T04:57:17.123Z,9.97
2022-12-31T04:59:43.849Z,10.00
2022-12-31T05:02:10.625Z,10.01
2022-12-31T05:04:37.513Z,10.02
2022-12-31T05:07:04.188Z,10.05
2022-12-31T05:09:31.215Z,10.06
2022-12-31T05:11:58.234Z,10.08
2022-12-31T05:14:25.204Z,10.05
2022-12-31T05:16:53.584Z,10.07
2022-12-31T05:19:20.356Z,10.11
2022-12-31T05:22:06.996Z,10.11
2022-12-31T05:24:33.652Z,10.12
2022-12-31T05:27:00.321Z,10.15
2022-12-31T05:29:26.931Z,10.17
2022-12-31T05:31:53.546Z,10.19
2022-12-31T05:34:20.378Z,10.19
2022-12-31T05:36:47.056Z,10.17
2022-12-31T05:39:13.925Z,10.17
2022-12-31T05:41:41.023Z,10.21
2022-12-31T05:44:08.087Z,10.23
2022-12-31T05:46:34.762Z,10.28
2022-12-31T05:49:01.427Z,10.31
2022-12-31T05:51:28.420Z,10.29
2022-12-31T05:53:55.102Z,10.30
2022-12-31T05:56:21.854Z,10.32
2022-12-31T05:58:48.523Z,10.35
2022-12-31T06:01:15.347Z,10.40
2022-12-31T06:03:42.171Z,10.47
2022-12-31T06:06:09.009Z,10.54
2022-12-31T06:08:35.659Z,10.59
2022-12-31T06:11:02.375Z,10.65
2022-12-31T06:13:29.782Z,10.71
2022-12-31T06:15:56.656Z,10.75
2022-12-31T06:18:23.426Z,10.80
2022-12-31T06:20:50.135Z,10.83
2022-12-31T06:23:16.779Z,10.87
2022-12-31T06:25:43.449Z,10.96
2022-12-31T06:28:14.708Z,10.97
2022-12-31T06:30:46.495Z,11.03
2022-12-31T06:33:13.359Z,11.02
2022-12-31T06:35:40.056Z,11.05
2022-12-31T06:38:06.712Z,11.08
2022-12-31T06:40:33.340Z,11.08
2022-12-31T06:43:00.561Z,11.07
2022-12-31T06:45:27.564Z,11.10
2022-12-31T06:47:54.237Z,11.11
2022-12-31T06:50:20.946Z,11.13
2022-12-31T06:52:47.585Z,11.14
2022-12-31T06:55:14.798Z,11.18
2022-12-31T06:57:42.115Z,11.21
2022-12-31T07:00:10.775Z,11.24
2022-12-31T07:02:52.610Z,11.32
2022-12-31T07:05:45.896Z,11.42
2022-12-31T07:08:40.863Z,11.50
2022-12-31T07:11:11.619Z,11.55
2022-12-31T07:13:59.870Z,11.61
2022-12-31T07:16:54.392Z,11.60
2022-12-31T07:19:57.734Z,11.58
2022-12-31T07:22:24.807Z,11.58
2022-12-31T07:24:51.804Z,11.59
2022-12-31T07:27:41.865Z,11.59
2022-12-31T07:30:19.932Z,11.53
2022-12-31T07:33:01.763Z,11.47
2022-12-31T07:35:56.576Z,11.45
2022-12-31T07:38:34.723Z,11.42
2022-12-31T07:41:13.503Z,11.41
2022-12-31T07:43:52.551Z,11.35
2022-12-31T07:46:59.793Z,11.33
2022-12-31T07:49:30.093Z,11.33
2022-12-31T07:51:57.328Z,11.32
2022-12-31T07:54:24.012Z,11.31
2022-12-31T07:56:51.387Z,11.30
2022-12-31T07:59:49.370Z,11.32
2022-12-31T08:02:45.147Z,11.36
2022-12-31T08:05:48.774Z,11.39
2022-12-31T08:08:45.393Z,11.43
2022-12-31T08:11:30.279Z,11.50
2022-12-31T08:14:01.270Z,11.56
2022-12-31T08:16:28.959Z,11.67
2022-12-31T08:18:56.382Z,11.83
2022-12-31T08:21:46.773Z,11.88
2022-12-31T08:24:19.988Z,11.90
2022-12-31T08:27:17.389Z,11.88
2022-12-31T08:30:06.148Z,11.91
2022-12-31T08:33:11.612Z,11.94
2022-12-31T08:36:17.298Z,11.90
2022-12-31T08:39:15.108Z,11.83
2022-12-31T08:41:44.763Z,11.80
2022-12-31T08:44:27.235Z,11.78
2022-12-31T08:47:03.040Z,11.77
2022-12-31T08:49:33.089Z,11.74
2022-12-31T08:52:01.117Z,11.71
2022-12-31T08:54:28.231Z,11.68
2022-12-31T08:56:54.817Z,11.66
2022-12-31T08:59:21.471Z,11.64
2022-12-31T09:01:51.418Z,11.57
2022-12-31T09:04:39.525Z,11.48
2022-12-31T09:07:09.568Z,11.40
2022-12-31T09:09:39.235Z,11.39
2022-12-31T09:12:27.245Z,11.32
2022-12-31T09:15:07.200Z,11.32
2022-12-31T09:17:47.963Z,11.37
2022-12-31T09:20:24.627Z,11.34
2022-12-31T09:22:52.473Z,11.39
2022-12-31T09:25:21.564Z,11.36
2022-12-31T09:28:26.720Z,11.41
2022-12-31T09:30:59.283Z,11.42
2022-12-31T09:33:46.259Z,11.42
2022-12-31T09:36:27.750Z,11.45
2022-12-31T09:39:06.519Z,11.44
2022-12-31T09:41:48.497Z,11.41
2022-12-31T09:44:42.710Z,11.43
2022-12-31T09:47:09.414Z,11.41
2022-12-31T09:50:12.841Z,11.49
2022-12-31T09:53:01.623Z,11.57
2022-12-31T09:55:28.422Z,11.61
2022-12-31T09:58:24.984Z,11.64
2022-12-31T10:01:13.370Z,11.65
2022-12-31T10:03:42.989Z,11.71
2022-12-31T10:06:39.979Z,11.73
2022-12-31T10:09:22.096Z,11.77
2022-12-31T10:12:05.997Z,11.76
2022-12-31T10:14:49.347Z,11.84
2022-12-31T10:17:53.947Z,11.87
2022-12-31T10:20:59.594Z,11.94
2022-12-31T10:23:48.302Z,11.93
2022-12-31T10:26:54.005Z,11.95
2022-12-31T10:29:23.660Z,12.02
2022-12-31T10:32:08.347Z,12.02
2022-12-31T10:34:44.191Z,12.09
2022-12-31T10:37:17.871Z,12.04
2022-12-31T10:40:10.926Z,12.01
2022-12-31T10:43:09.280Z,11.92
2022-12-31T10:45:51.253Z,11.81
2022-12-31T10:48:55.892Z,11.83
2022-12-31T10:51:58.274Z,11.90
2022-12-31T10:54:28.059Z,11.93
2022-12-31T10:57:13.458Z,11.96
2022-12-31T11:00:02.514Z,11.92
2022-12-31T11:03:06.926Z,11.88
2022-12-31T11:05:42.649Z,11.82
2022-12-31T11:08:46.933Z,11.79
2022-12-31T11:11:32.962Z,11.81
2022-12-31T11:14:20.866Z,11.74
2022-12-31T11:16:57.849Z,11.74
2022-12-31T11:19:44.949Z,11.73
2022-12-31T11:22:14.451Z,11.76
2022-12-31T11:24:49.389Z,11.74
2022-12-31T11:27:42.709Z,11.79
2022-12-31T11:30:41.946Z,11.78
2022-12-31T11:33:50.284Z,11.73
2022-12-31T11:36:23.229Z,11.72
2022-12-31T11:39:13.819Z,11.75
2022-12-31T11:41:52.323Z,11.74
2022-12-31T11:44:40.906Z,11.76
2022-12-31T11:48:03.919Z,11.77
2022-12-31T11:50:51.668Z,11.83
2022-12-31T11:53:23.967Z,11.83
2022-12-31T11:56:31.475Z,11.82
2022-12-31T11:58:58.471Z,11.82
2022-12-31T12:01:27.703Z,11.81
2022-12-31T12:03:54.481Z,11.83
2022-12-31T12:06:27.348Z,11.81
2022-12-31T12:08:59.732Z,11.80
2022-12-31T12:11:30.437Z,11.78
2022-12-31T12:13:57.716Z,11.81
2022-12-31T12:16:27.006Z,11.79
2022-12-31T12:19:15.288Z,11.80
2022-12-31T12:21:49.410Z,11.79
2022-12-31T12:24:28.395Z,11.78
2022-12-31T12:26:57.439Z,11.75
2022-12-31T12:29:28.840Z,11.71
2022-12-31T12:32:00.618Z,11.71
2022-12-31T12:34:33.790Z,11.63
2022-12-31T12:37:01.413Z,11.57
2022-12-31T12:39:30.907Z,11.54
2022-12-31T12:42:14.631Z,11.47
2022-12-31T12:44:44.661Z,11.47
2022-12-31T12:47:17.436Z,11.51
2022-12-31T12:49:49.746Z,11.48
2022-12-31T12:52:36.532Z,11.46
2022-12-31T12:55:15.049Z,11.35
2022-12-31T12:57:50.940Z,11.33
2022-12-31T13:00:25.195Z,11.27
2022-12-31T13:03:10.245Z,11.20
2022-12-31T13:06:10.148Z,11.19
2022-12-31T13:09:05.035Z,11.08
2022-12-31T13:11:49.958Z,11.07
2022-12-31T13:14:16.576Z,11.05
2022-12-31T13:17:31.283Z,11.00
2022-12-31T13:20:24.069Z,10.96
2022-12-31T13:23:09.665Z,10.87
2022-12-31T13:26:02.021Z,10.81
2022-12-31T13:28:31.761Z,10.83
2022-12-31T13:31:06.623Z,10.82
2022-12-31T13:33:41.049Z,10.84
2022-12-31T13:36:10.700Z,10.86
2022-12-31T13:38:44.988Z,10.86
2022-12-31T13:41:33.064Z,10.93
2022-12-31T13:44:08.834Z,10.99
2022-12-31T13:46:46.917Z,11.05
2022-12-31T13:49:28.975Z,11.06
2022-12-31T13:52:05.653Z,11.13
2022-12-31T13:54:53.078Z,11.14
2022-12-31T13:57:39.944Z,11.16
2022-12-31T14:00:24.432Z,11.19
2022-12-31T14:03:13.015Z,11.18
2022-12-31T14:05:54.936Z,11.25
2022-12-31T14:08:21.861Z,11.31
2022-12-31T14:10:48.496Z,11.36
2022-12-31T14:13:35.101Z,11.41
2022-12-31T14:16:21.686Z,11.48
2022-12-31T14:18:55.215Z,11.52
2022-12-31T14:21:27.500Z,11.56
2022-12-31T14:24:15.577Z,11.61
2022-12-31T14:26:48.180Z,11.66
2022-12-31T14:29:15.679Z,11.70
2022-12-31T14:31:48.750Z,11.68
2022-12-31T14:34:40.531Z,11.69
2022-12-31T14:37:30.919Z,11.68
2022-12-31T14:40:18.371Z,11.68
2022-12-31T14:43:00.371Z,11.69
2022-12-31T14:45:35.732Z,11.68
2022-12-31T14:48:21.856Z,11.63
2022-12-31T14:50:49.233Z,11.61
2022-12-31T14:53:25.282Z,11.54
2022-12-31T14:56:04.180Z,11.51
2022-12-31T14:58:42.657Z,11.47
2022-12-31T15:01:15.266Z,11.43
2022-12-31T15:03:46.026Z,11.39
2022-12-31T15:06:31.984Z,11.36
2022-12-31T15:09:28.153Z,11.42
2022-12-31T15:12:33.216Z,11.44
2022-12-31T15:15:26.072Z,11.47
2022-12-31T15:18:18.048Z,11.41
2022-12-31T15:20:55.040Z,11.41
2022-12-31T15:23:34.536Z,11.41
2022-12-31T15:26:03.084Z,11.40
2022-12-31T15:28:39.657Z,11.40
2022-12-31T15:31:18.157Z,11.38
2022-12-31T15:34:06.366Z,11.39
2022-12-31T15:36:41.165Z,11.38
2022-12-31T15:39:10.656Z,11.37
2022-12-31T15:41:42.894Z,11.46
2022-12-31T15:44:32.993Z,11.55
2022-12-31T15:47:30.217Z,11.72
2022-12-31T15:50:02.608Z,11.76
2022-12-31T15:52:55.566Z,11.87
2022-12-31T15:55:26.431Z,11.91
2022-12-31T15:57:58.462Z,11.98
2022-12-31T16:00:25.461Z,12.05
2022-12-31T16:02:55.526Z,12.08
2022-12-31T16:05:25.606Z,12.15
2022-12-31T16:07:57.878Z,12.22
2022-12-31T16:10:29.377Z,12.24
2022-12-31T16:12:57.959Z,12.27
2022-12-31T16:15:29.395Z,12.29
2022-12-31T16:18:10.028Z,12.30
2022-12-31T16:20:42.799Z,12.31
2022-12-31T16:23:28.094Z,12.46
2022-12-31T16:25:59.910Z,12.53
2022-12-31T16:28:32.713Z,12.55
2022-12-31T16:31:05.864Z,12.69
2022-12-31T16:33:33.093Z,12.82
2022-12-31T16:36:01.768Z,12.86
2022-12-31T16:38:33.942Z,12.85
2022-12-31T16:41:03.573Z,12.86
2022-12-31T16:43:42.294Z,12.86
2022-12-31T16:46:31.481Z,13.03
2022-12-31T16:49:16.056Z,12.99
2022-12-31T16:51:43.171Z,13.05
2022-12-31T16:54:24.902Z,13.13
2022-12-31T16:56:52.671Z,13.15
2022-12-31T16:59:36.494Z,13.16
2022-12-31T17:02:11.735Z,13.19
2022-12-31T17:04:45.105Z,13.25
2022-12-31T17:07:32.279Z,13.23
2022-12-31T17:10:23.038Z,13.23
2022-12-31T17:15:45.918Z,13.41
2022-12-31T17:18:24.984Z,13.44
2022-12-31T17:20:53.534Z,13.45
2022-12-31T17:23:32.658Z,13.51
2022-12-31T17:26:03.231Z,13.52
2022-12-31T17:28:38.862Z,13.50
2022-12-31T17:31:26.009Z,13.62
2022-12-31T17:33:55.140Z,13.62
2022-12-31T17:36:24.851Z,13.77
2022-12-31T17:38:51.864Z,13.80
2022-12-31T17:41:27.182Z,13.87
2022-12-31T17:43:56.349Z,13.86
2022-12-31T17:46:24.895Z,13.96
2022-12-31T17:49:03.479Z,13.93
2022-12-31T17:51:30.330Z,13.98
2022-12-31T17:54:00.627Z,13.90
2022-12-31T17:56:27.447Z,13.91
2022-12-31T17:58:54.744Z,13.88
2022-12-31T18:01:23.709Z,13.88
2022-12-31T18:03:50.677Z,13.96
2022-12-31T18:06:19.880Z,13.94
2022-12-31T18:08:46.983Z,13.98
2022-12-31T18:11:20.214Z,14.05
2022-12-31T18:13:47.273Z,14.15
2022-12-31T18:16:14.124Z,14.11
2022-12-31T18:18:42.323Z,14.10
2022-12-31T18:21:29.020Z,14.16
2022-12-31T18:26:24.246Z,14.12
2022-12-31T18:28:51.870Z,14.20
2022-12-31T18:31:24.801Z,14.21
2022-12-31T18:33:53.689Z,14.22
2022-12-31T18:36:21.844Z,14.23
2022-12-31T18:38:48.995Z,14.37
2022-12-31T18:41:21.397Z,14.45
2022-12-31T18:43:48.734Z,14.45
2022-12-31T18:46:18.252Z,14.49
2022-12-31T18:48:45.192Z,14.47
2022-12-31T18:51:17.630Z,14.47
2022-12-31T18:53:44.687Z,14.42
2022-12-31T18:56:13.295Z,14.34
2022-12-31T18:58:40.570Z,14.43
2022-12-31T19:01:25.237Z,14.55
2022-12-31T19:03:52.326Z,14.53
2022-12-31T19:06:19.642Z,14.62
2022-12-31T19:08:46.497Z,14.55
2022-12-31T19:11:15.027Z,14.54
2022-12-31T19:13:42.364Z,14.61
2022-12-31T19:16:10.075Z,14.52
2022-12-31T19:18:37.444Z,14.49
2022-12-31T19:21:04.702Z,14.47
2022-12-31T19:23:31.346Z,14.45
2022-12-31T19:25:58.198Z,14.46
2022-12-31T19:28:27.035Z,14.43
2022-12-31T19:30:54.294Z,14.43
2022-12-31T19:33:21.344Z,14.40
2022-12-31T19:35:48.364Z,14.55
2022-12-31T19:38:22.903Z,14.41
2022-12-31T19:40:50.914Z,14.31
2022-12-31T19:43:20.447Z,14.21
2022-12-31T19:45:48.322Z,14.13
2022-12-31T19:48:28.763Z,13.96
2022-12-31T19:50:59.804Z,13.85
2022-12-31T19:53:27.703Z,13.78
2022-12-31T19:55:54.749Z,13.63
2022-12-31T19:58:28.149Z,13.53
2022-12-31T20:01:02.410Z,13.38
2022-12-31T20:03:31.309Z,13.28
2022-12-31T20:06:10.167Z,13.21
2022-12-31T20:08:38.707Z,13.06
2022-12-31T20:11:19.851Z,13.01
2022-12-31T20:13:47.676Z,12.84
2022-12-31T20:16:19.993Z,12.78
2022-12-31T20:18:47.497Z,12.63
2022-12-31T20:21:17.933Z,12.49
2022-12-31T20:23:44.759Z,12.41
2022-12-31T20:26:11.592Z,12.32
2022-12-31T20:28:38.629Z,12.33
2022-12-31T20:31:14.381Z,12.28
2022-12-31T20:33:41.522Z,12.27
2022-12-31T20:36:11.738Z,12.31
2022-12-31T20:38:38.649Z,12.28
2022-12-31T20:41:11.075Z,12.28
2022-12-31T20:43:38.461Z,12.30
2022-12-31T20:46:15.216Z,12.38
2022-12-31T20:48:43.874Z,12.46
2022-12-31T20:51:11.082Z,12.53
2022-12-31T20:53:37.868Z,12.60
2022-12-31T20:56:08.911Z,12.70
2022-12-31T20:58:36.367Z,12.82
2022-12-31T21:01:07.542Z,12.84
2022-12-31T21:06:27.427Z,12.98
2022-12-31T21:08:55.197Z,13.03
2022-12-31T21:11:41.037Z,13.03
2022-12-31T21:14:08.450Z,13.11
2022-12-31T21:16:35.724Z,13.09
2022-12-31T21:19:02.747Z,13.13
2022-12-31T21:21:29.488Z,13.12
2022-12-31T21:23:56.284Z,13.16
2022-12-31T21:26:23.115Z,13.19
2022-12-31T21:28:50.146Z,13.20
2022-12-31T21:31:17.028Z,13.21
2022-12-31T21:33:45.487Z,13.30
2022-12-31T21:36:12.831Z,13.30
2022-12-31T21:38:40.145Z,13.35
2022-12-31T21:41:08.903Z,13.41
2022-12-31T21:43:36.340Z,13.46
2022-12-31T21:46:07.476Z,13.49
2022-12-31T21:48:37.113Z,13.59
2022-12-31T21:51:10.421Z,13.70
2022-12-31T21:53:37.718Z,13.79
2022-12-31T21:56:16.172Z,13.81
2022-12-31T21:58:45.878Z,13.90
2022-12-31T22:01:40.532Z,14.01
2022-12-31T22:04:28.110Z,14.00
2022-12-31T22:06:55.034Z,14.07
2022-12-31T22:09:21.869Z,14.12
2022-12-31T22:11:48.711Z,14.17
2022-12-31T22:14:17.678Z,14.21
2022-12-31T22:16:44.455Z,14.31
2022-12-31T22:19:11.267Z,14.31
2022-12-31T22:21:38.036Z,14.36
2022-12-31T22:24:05.456Z,14.28
2022-12-31T22:26:32.336Z,14.33
2022-12-31T22:28:59.862Z,14.34
2022-12-31T22:31:30.340Z,14.37
2022-12-31T22:33:58.749Z,14.32
2022-12-31T22:36:28.274Z,14.27
2022-12-31T22:38:58.337Z,14.30
2022-12-31T22:41:27.805Z,14.32
2022-12-31T22:44:03.218Z,14.25
2022-12-31T22:46:31.619Z,14.19
2022-12-31T22:48:59.557Z,14.19
2022-12-31T22:51:55.188Z,14.14
2022-12-31T22:54:14.620Z,14.07
2022-12-31T22:56:41.580Z,14.04
2022-12-31T22:59:09.215Z,13.92
2022-12-31T23:01:36.217Z,13.84
2022-12-31T23:04:04.104Z,13.69
2022-12-31T23:06:30.947Z,13.57
2022-12-31T23:09:16.572Z,13.47
2022-12-31T23:11:43.679Z,13.40
2022-12-31T23:14:34.434Z,13.32
2022-12-31T23:17:31.121Z,13.27
2022-12-31T23:20:18.598Z,13.31
2022-12-31T23:23:04.993Z,13.31
2022-12-31T23:25:33.421Z,13.31
2022-12-31T23:28:00.193Z,13.37
2022-12-31T23:30:26.928Z,13.38
2022-12-31T23:32:53.763Z,13.43
2022-12-31T23:35:20.734Z,13.45
2022-12-31T23:37:47.422Z,13.48
2022-12-31T23:40:20.729Z,13.48
2022-12-31T23:42:48.476Z,13.46
2022-12-31T23:45:15.169Z,13.47
2022-12-31T23:47:41.983Z,13.45
2022-12-31T23:50:09.112Z,13.46
2022-12-31T23:52:35.925Z,13.42
2022-12-31T23:55:03.904Z,13.34
2022-12-31T23:57:33.300Z,13.32
